Dina — CNA3890 — position and weather

sailwx.info

Track history (hours):
 
Tides and Currents Weather Stations Pressure Air Temp Water Temp Dewpoint Dewpoint Depression Visibility Wind Speed Wind Dir Waves Ship Positions

Dina

Last reported at 2017-Oct-29 17:30 UTC. Time now 2017-Nov-22 02:03 UTC.
Position N 34°59' W 006°36'.
Warning: this ship's position is 23 days out of date.

Length 36 m; draft 3.6 m.

Type: Fishing. MMSI: 242920000.

Date/timePositionNaut miles runAvg speedWind from/ knotsBaromVisibWave heightAir tempDewpointWater temp
2017-Oct-29 17:30N 34°59' W 006°36'12 1.0
2017-Oct-29 05:08N 34°50' W 006°46'1 5.9
2017-Oct-29 05:00N 34°50' W 006°47'13 1.3
2017-Oct-28 18:58N 34°38' W 006°51'5 3.4
2017-Oct-28 17:34N 34°42' W 006°50'0 3.3
2017-Oct-28 17:30N 34°42' W 006°50'2 3.2
2017-Oct-28 16:58N 34°44' W 006°49'4 2.6
2017-Oct-28 15:23N 34°48' W 006°47'6 3.3
2017-Oct-28 13:40N 34°43' W 006°50'1 3.4
2017-Oct-28 13:27N 34°42' W 006°50'3 3.8
2017-Oct-28 12:39N 34°39' W 006°51'  
2017-Oct-25 01:27N 35°10' W 006°30'  
Track history (hours):
 
Tides and Currents Weather Stations Pressure Air Temp Water Temp Dewpoint Dewpoint Depression Visibility Wind Speed Wind Dir Waves Ship Positions

Dina

Last reported at 2017-Oct-29 17:30 UTC. Time now 2017-Nov-22 02:03 UTC.
Position N 34°59' W 006°36'.
Warning: this ship's position is 23 days out of date.

Length 36 m; draft 3.6 m.

Type: Fishing. MMSI: 242920000.

Date/timePositionNaut miles runAvg speedWind from/ knotsBaromVisibWave heightAir tempDewpointWater temp
2017-Oct-29 17:30N 34°59' W 006°36'12 1.0
2017-Oct-29 05:08N 34°50' W 006°46'1 5.9
2017-Oct-29 05:00N 34°50' W 006°47'13 1.3
2017-Oct-28 18:58N 34°38' W 006°51'5 3.4
2017-Oct-28 17:34N 34°42' W 006°50'0 3.3
2017-Oct-28 17:30N 34°42' W 006°50'2 3.2
2017-Oct-28 16:58N 34°44' W 006°49'4 2.6
2017-Oct-28 15:23N 34°48' W 006°47'6 3.3
2017-Oct-28 13:40N 34°43' W 006°50'1 3.4
2017-Oct-28 13:27N 34°42' W 006°50'3 3.8
2017-Oct-28 12:39N 34°39' W 006°51'  
2017-Oct-25 01:27N 35°10' W 006°30'  

Dump ship's entire track history